sensor_id;sensor_type;location;lat;lon;timestamp;temperature;humidity
12588;DHT22;6359;51.450;7.346;2023-03-11T00:01:58;0.60;99.90
12588;DHT22;6359;51.450;7.346;2023-03-11T00:04:26;0.60;99.90
12588;DHT22;6359;51.450;7.346;2023-03-11T00:06:53;0.70;99.90
12588;DHT22;6359;51.450;7.346;2023-03-11T00:09:20;0.70;99.90
12588;DHT22;6359;51.450;7.346;2023-03-11T00:11:47;0.70;99.90
12588;DHT22;6359;51.450;7.346;2023-03-11T00:14:14;0.60;99.90
12588;DHT22;6359;51.450;7.346;2023-03-11T00:16:41;0.60;99.90
12588;DHT22;6359;51.450;7.346;2023-03-11T00:19:08;0.70;99.90
12588;DHT22;6359;51.450;7.346;2023-03-11T00:21:37;0.70;99.90
12588;DHT22;6359;51.450;7.346;2023-03-11T00:24:05;0.70;99.90
12588;DHT22;6359;51.450;7.346;2023-03-11T00:26:32;0.70;99.90
12588;DHT22;6359;51.450;7.346;2023-03-11T00:28:59;0.60;99.90
12588;DHT22;6359;51.450;7.346;2023-03-11T00:31:26;0.50;99.90
12588;DHT22;6359;51.450;7.346;2023-03-11T00:33:53;0.60;99.90
12588;DHT22;6359;51.450;7.346;2023-03-11T00:36:23;0.60;99.90
12588;DHT22;6359;51.450;7.346;2023-03-11T00:38:57;0.60;99.90
12588;DHT22;6359;51.450;7.346;2023-03-11T00:41:24;0.70;99.90
12588;DHT22;6359;51.450;7.346;2023-03-11T00:43:51;0.60;99.90
12588;DHT22;6359;51.450;7.346;2023-03-11T00:46:18;0.70;99.90
12588;DHT22;6359;51.450;7.346;2023-03-11T00:48:45;0.70;99.90
12588;DHT22;6359;51.450;7.346;2023-03-11T00:51:14;0.60;99.90
12588;DHT22;6359;51.450;7.346;2023-03-11T00:53:41;0.70;99.90
12588;DHT22;6359;51.450;7.346;2023-03-11T00:56:11;0.70;99.90
12588;DHT22;6359;51.450;7.346;2023-03-11T00:58:39;0.60;99.90
12588;DHT22;6359;51.450;7.346;2023-03-11T01:01:07;0.60;99.90
12588;DHT22;6359;51.450;7.346;2023-03-11T01:03:34;0.60;99.90
12588;DHT22;6359;51.450;7.346;2023-03-11T01:06:02;0.60;99.90
12588;DHT22;6359;51.450;7.346;2023-03-11T01:08:29;0.60;99.90
12588;DHT22;6359;51.450;7.346;2023-03-11T01:10:57;0.60;99.90
12588;DHT22;6359;51.450;7.346;2023-03-11T01:13:26;0.60;99.90
12588;DHT22;6359;51.450;7.346;2023-03-11T01:15:53;0.50;99.90
12588;DHT22;6359;51.450;7.346;2023-03-11T01:18:21;0.60;99.90
12588;DHT22;6359;51.450;7.346;2023-03-11T01:20:48;0.50;99.90
12588;DHT22;6359;51.450;7.346;2023-03-11T01:23:16;0.60;99.90
12588;DHT22;6359;51.450;7.346;2023-03-11T01:25:43;0.50;99.90
12588;DHT22;6359;51.450;7.346;2023-03-11T01:28:10;0.50;99.90
12588;DHT22;6359;51.450;7.346;2023-03-11T01:30:40;0.80;99.90
12588;DHT22;6359;51.450;7.346;2023-03-11T01:33:11;0.70;99.90
12588;DHT22;6359;51.450;7.346;2023-03-11T01:35:39;0.70;99.90
12588;DHT22;6359;51.450;7.346;2023-03-11T01:38:07;0.70;99.90
12588;DHT22;6359;51.450;7.346;2023-03-11T01:40:35;0.80;99.90
12588;DHT22;6359;51.450;7.346;2023-03-11T01:43:05;0.80;99.90
12588;DHT22;6359;51.450;7.346;2023-03-11T01:45:41;0.80;99.90
12588;DHT22;6359;51.450;7.346;2023-03-11T01:48:28;0.80;99.90
12588;DHT22;6359;51.450;7.346;2023-03-11T01:50:55;0.80;99.90
12588;DHT22;6359;51.450;7.346;2023-03-11T01:53:23;0.90;99.90
12588;DHT22;6359;51.450;7.346;2023-03-11T01:55:51;0.80;99.90
12588;DHT22;6359;51.450;7.346;2023-03-11T01:58:21;0.90;99.90
12588;DHT22;6359;51.450;7.346;2023-03-11T02:00:51;0.90;99.90
12588;DHT22;6359;51.450;7.346;2023-03-11T02:03:23;0.90;99.90
12588;DHT22;6359;51.450;7.346;2023-03-11T02:05:53;0.90;99.90
12588;DHT22;6359;51.450;7.346;2023-03-11T02:08:21;0.90;99.90
12588;DHT22;6359;51.450;7.346;2023-03-11T02:10:49;0.80;99.90
12588;DHT22;6359;51.450;7.346;2023-03-11T02:13:17;0.80;99.90
12588;DHT22;6359;51.450;7.346;2023-03-11T02:15:45;0.90;99.90
12588;DHT22;6359;51.450;7.346;2023-03-11T02:18:14;0.90;99.90
12588;DHT22;6359;51.450;7.346;2023-03-11T02:20:46;0.90;99.90
12588;DHT22;6359;51.450;7.346;2023-03-11T02:23:16;0.80;99.90
12588;DHT22;6359;51.450;7.346;2023-03-11T02:25:50;0.70;99.90
12588;DHT22;6359;51.450;7.346;2023-03-11T02:28:21;0.70;99.90
12588;DHT22;6359;51.450;7.346;2023-03-11T02:30:49;0.70;99.90
12588;DHT22;6359;51.450;7.346;2023-03-11T02:33:17;0.70;99.90
12588;DHT22;6359;51.450;7.346;2023-03-11T02:35:44;0.80;99.90
12588;DHT22;6359;51.450;7.346;2023-03-11T02:38:11;0.70;99.90
12588;DHT22;6359;51.450;7.346;2023-03-11T02:40:45;0.70;99.90
12588;DHT22;6359;51.450;7.346;2023-03-11T02:43:16;0.70;99.90
12588;DHT22;6359;51.450;7.346;2023-03-11T02:45:45;0.80;99.90
12588;DHT22;6359;51.450;7.346;2023-03-11T02:48:14;0.70;99.90
12588;DHT22;6359;51.450;7.346;2023-03-11T02:50:43;0.70;99.90
12588;DHT22;6359;51.450;7.346;2023-03-11T02:53:11;0.70;99.90
12588;DHT22;6359;51.450;7.346;2023-03-11T02:55:38;0.60;99.90
12588;DHT22;6359;51.450;7.346;2023-03-11T02:58:05;0.60;99.90
12588;DHT22;6359;51.450;7.346;2023-03-11T03:00:32;0.50;99.90
12588;DHT22;6359;51.450;7.346;2023-03-11T03:03:00;0.50;99.90
12588;DHT22;6359;51.450;7.346;2023-03-11T03:05:27;0.60;99.90
12588;DHT22;6359;51.450;7.346;2023-03-11T03:07:54;0.60;99.90
12588;DHT22;6359;51.450;7.346;2023-03-11T03:10:21;0.60;99.90
12588;DHT22;6359;51.450;7.346;2023-03-11T03:12:48;0.60;99.90
12588;DHT22;6359;51.450;7.346;2023-03-11T03:15:15;0.60;99.90
12588;DHT22;6359;51.450;7.346;2023-03-11T03:17:42;0.60;99.90
12588;DHT22;6359;51.450;7.346;2023-03-11T03:20:13;0.60;99.90
12588;DHT22;6359;51.450;7.346;2023-03-11T03:22:41;0.60;99.90
12588;DHT22;6359;51.450;7.346;2023-03-11T03:25:09;0.60;99.90
12588;DHT22;6359;51.450;7.346;2023-03-11T03:27:36;0.60;99.90
12588;DHT22;6359;51.450;7.346;2023-03-11T03:30:04;0.50;99.90
12588;DHT22;6359;51.450;7.346;2023-03-11T03:32:31;0.70;99.90
12588;DHT22;6359;51.450;7.346;2023-03-11T03:34:58;0.70;99.90
12588;DHT22;6359;51.450;7.346;2023-03-11T03:37:27;0.60;99.90
12588;DHT22;6359;51.450;7.346;2023-03-11T03:39:57;0.70;99.90
12588;DHT22;6359;51.450;7.346;2023-03-11T03:42:24;0.70;99.90
12588;DHT22;6359;51.450;7.346;2023-03-11T03:44:51;0.80;99.90
12588;DHT22;6359;51.450;7.346;2023-03-11T03:47:18;0.80;99.90
12588;DHT22;6359;51.450;7.346;2023-03-11T03:49:46;0.80;99.90
12588;DHT22;6359;51.450;7.346;2023-03-11T03:52:13;0.80;99.90
12588;DHT22;6359;51.450;7.346;2023-03-11T03:54:42;0.90;99.90
12588;DHT22;6359;51.450;7.346;2023-03-11T03:57:09;0.80;99.90
12588;DHT22;6359;51.450;7.346;2023-03-11T03:59:36;0.80;99.90
12588;DHT22;6359;51.450;7.346;2023-03-11T04:02:02;0.90;99.90
12588;DHT22;6359;51.450;7.346;2023-03-11T04:04:30;0.80;99.90
12588;DHT22;6359;51.450;7.346;2023-03-11T04:06:56;0.70;99.90
12588;DHT22;6359;51.450;7.346;2023-03-11T04:09:23;0.80;99.90
12588;DHT22;6359;51.450;7.346;2023-03-11T04:11:52;0.80;99.90
12588;DHT22;6359;51.450;7.346;2023-03-11T04:14:18;0.90;99.90
12588;DHT22;6359;51.450;7.346;2023-03-11T04:16:45;1.00;99.90
12588;DHT22;6359;51.450;7.346;2023-03-11T04:19:12;1.10;99.90
12588;DHT22;6359;51.450;7.346;2023-03-11T04:21:40;1.00;99.90
12588;DHT22;6359;51.450;7.346;2023-03-11T04:24:07;0.90;99.90
12588;DHT22;6359;51.450;7.346;2023-03-11T04:26:34;0.90;99.90
12588;DHT22;6359;51.450;7.346;2023-03-11T04:29:02;1.00;99.90
12588;DHT22;6359;51.450;7.346;2023-03-11T04:31:29;1.10;99.90
12588;DHT22;6359;51.450;7.346;2023-03-11T04:33:56;1.10;99.90
12588;DHT22;6359;51.450;7.346;2023-03-11T04:36:23;1.00;99.90
12588;DHT22;6359;51.450;7.346;2023-03-11T04:38:50;1.00;99.90
12588;DHT22;6359;51.450;7.346;2023-03-11T04:41:17;1.00;99.90
12588;DHT22;6359;51.450;7.346;2023-03-11T04:43:43;0.90;99.90
12588;DHT22;6359;51.450;7.346;2023-03-11T04:46:12;1.00;99.90
12588;DHT22;6359;51.450;7.346;2023-03-11T04:48:39;1.10;99.90
12588;DHT22;6359;51.450;7.346;2023-03-11T04:51:06;1.10;99.90
12588;DHT22;6359;51.450;7.346;2023-03-11T04:53:33;1.20;99.90
12588;DHT22;6359;51.450;7.346;2023-03-11T04:56:00;1.20;99.90
12588;DHT22;6359;51.450;7.346;2023-03-11T04:58:27;1.20;99.90
12588;DHT22;6359;51.450;7.346;2023-03-11T05:00:54;1.20;99.90
12588;DHT22;6359;51.450;7.346;2023-03-11T05:03:22;1.20;99.90
12588;DHT22;6359;51.450;7.346;2023-03-11T05:05:49;1.20;99.90
12588;DHT22;6359;51.450;7.346;2023-03-11T05:08:18;1.20;99.90
12588;DHT22;6359;51.450;7.346;2023-03-11T05:10:45;1.20;99.90
12588;DHT22;6359;51.450;7.346;2023-03-11T05:13:12;1.20;99.90
12588;DHT22;6359;51.450;7.346;2023-03-11T05:15:39;1.20;99.90
12588;DHT22;6359;51.450;7.346;2023-03-11T05:18:07;1.10;99.90
12588;DHT22;6359;51.450;7.346;2023-03-11T05:20:35;1.20;99.90
12588;DHT22;6359;51.450;7.346;2023-03-11T05:23:02;1.20;99.90
12588;DHT22;6359;51.450;7.346;2023-03-11T05:25:29;1.10;99.90
12588;DHT22;6359;51.450;7.346;2023-03-11T05:27:56;1.10;99.90
12588;DHT22;6359;51.450;7.346;2023-03-11T05:30:23;1.10;99.90
12588;DHT22;6359;51.450;7.346;2023-03-11T05:32:50;1.10;99.90
12588;DHT22;6359;51.450;7.346;2023-03-11T05:35:17;1.10;99.90
12588;DHT22;6359;51.450;7.346;2023-03-11T05:37:46;1.00;99.90
12588;DHT22;6359;51.450;7.346;2023-03-11T05:40:14;0.90;99.90
12588;DHT22;6359;51.450;7.346;2023-03-11T05:42:41;0.90;99.90
12588;DHT22;6359;51.450;7.346;2023-03-11T05:45:09;0.90;99.90
12588;DHT22;6359;51.450;7.346;2023-03-11T05:47:36;0.90;99.90
12588;DHT22;6359;51.450;7.346;2023-03-11T05:50:04;0.80;99.90
12588;DHT22;6359;51.450;7.346;2023-03-11T05:52:31;0.80;99.90
12588;DHT22;6359;51.450;7.346;2023-03-11T05:54:59;0.70;99.90
12588;DHT22;6359;51.450;7.346;2023-03-11T05:57:26;0.70;99.90
12588;DHT22;6359;51.450;7.346;2023-03-11T05:59:53;0.60;99.90
12588;DHT22;6359;51.450;7.346;2023-03-11T06:02:20;0.80;99.90
12588;DHT22;6359;51.450;7.346;2023-03-11T06:04:48;0.70;99.90
12588;DHT22;6359;51.450;7.346;2023-03-11T06:07:15;0.80;99.90
12588;DHT22;6359;51.450;7.346;2023-03-11T06:09:41;0.70;99.90
12588;DHT22;6359;51.450;7.346;2023-03-11T06:12:10;0.70;99.90
12588;DHT22;6359;51.450;7.346;2023-03-11T06:14:37;0.80;99.90
12588;DHT22;6359;51.450;7.346;2023-03-11T06:17:04;0.60;99.90
12588;DHT22;6359;51.450;7.346;2023-03-11T06:19:30;0.50;99.90
12588;DHT22;6359;51.450;7.346;2023-03-11T06:21:57;0.50;99.90
12588;DHT22;6359;51.450;7.346;2023-03-11T06:24:24;0.50;99.90
12588;DHT22;6359;51.450;7.346;2023-03-11T06:26:51;0.40;99.90
12588;DHT22;6359;51.450;7.346;2023-03-11T06:29:20;0.40;99.90
12588;DHT22;6359;51.450;7.346;2023-03-11T06:31:49;0.50;99.90
12588;DHT22;6359;51.450;7.346;2023-03-11T06:34:16;0.50;99.90
12588;DHT22;6359;51.450;7.346;2023-03-11T06:36:43;0.60;99.90
12588;DHT22;6359;51.450;7.346;2023-03-11T06:39:12;0.60;99.90
12588;DHT22;6359;51.450;7.346;2023-03-11T06:41:38;0.60;99.90
12588;DHT22;6359;51.450;7.346;2023-03-11T06:44:05;0.50;99.90
12588;DHT22;6359;51.450;7.346;2023-03-11T06:46:34;0.60;99.90
12588;DHT22;6359;51.450;7.346;2023-03-11T06:49:01;0.80;99.90
12588;DHT22;6359;51.450;7.346;2023-03-11T06:51:28;0.80;99.90
12588;DHT22;6359;51.450;7.346;2023-03-11T06:53:55;0.80;99.90
12588;DHT22;6359;51.450;7.346;2023-03-11T06:56:22;0.70;99.90
12588;DHT22;6359;51.450;7.346;2023-03-11T06:58:49;0.60;99.90
12588;DHT22;6359;51.450;7.346;2023-03-11T07:01:17;0.70;99.90
12588;DHT22;6359;51.450;7.346;2023-03-11T07:03:47;0.70;99.90
12588;DHT22;6359;51.450;7.346;2023-03-11T07:06:16;0.70;99.90
12588;DHT22;6359;51.450;7.346;2023-03-11T07:08:43;0.80;99.90
12588;DHT22;6359;51.450;7.346;2023-03-11T07:11:13;0.80;99.90
12588;DHT22;6359;51.450;7.346;2023-03-11T07:13:41;0.80;99.90
12588;DHT22;6359;51.450;7.346;2023-03-11T07:16:09;0.80;99.90
12588;DHT22;6359;51.450;7.346;2023-03-11T07:18:36;0.80;99.90
12588;DHT22;6359;51.450;7.346;2023-03-11T07:21:06;0.80;99.90
12588;DHT22;6359;51.450;7.346;2023-03-11T07:23:34;0.90;99.90
12588;DHT22;6359;51.450;7.346;2023-03-11T07:26:02;1.00;99.90
12588;DHT22;6359;51.450;7.346;2023-03-11T07:28:29;1.10;99.90
12588;DHT22;6359;51.450;7.346;2023-03-11T07:30:56;1.10;99.90
12588;DHT22;6359;51.450;7.346;2023-03-11T07:33:23;1.30;99.90
12588;DHT22;6359;51.450;7.346;2023-03-11T07:35:50;1.30;99.90
12588;DHT22;6359;51.450;7.346;2023-03-11T07:38:19;1.60;99.90
12588;DHT22;6359;51.450;7.346;2023-03-11T07:40:46;1.80;99.90
12588;DHT22;6359;51.450;7.346;2023-03-11T07:43:12;2.60;99.90
12588;DHT22;6359;51.450;7.346;2023-03-11T07:45:39;4.20;99.90
12588;DHT22;6359;51.450;7.346;2023-03-11T07:48:06;5.90;99.90
12588;DHT22;6359;51.450;7.346;2023-03-11T07:50:33;7.20;99.90
12588;DHT22;6359;51.450;7.346;2023-03-11T07:53:00;7.50;99.90
12588;DHT22;6359;51.450;7.346;2023-03-11T07:55:28;7.40;99.90
12588;DHT22;6359;51.450;7.346;2023-03-11T07:57:55;7.50;99.90
12588;DHT22;6359;51.450;7.346;2023-03-11T08:00:22;8.00;99.90
12588;DHT22;6359;51.450;7.346;2023-03-11T08:02:49;8.40;99.90
12588;DHT22;6359;51.450;7.346;2023-03-11T08:05:16;9.00;99.90
12588;DHT22;6359;51.450;7.346;2023-03-11T08:07:45;9.40;99.90
12588;DHT22;6359;51.450;7.346;2023-03-11T08:10:12;10.30;99.90
12588;DHT22;6359;51.450;7.346;2023-03-11T08:12:40;11.30;99.90
12588;DHT22;6359;51.450;7.346;2023-03-11T08:15:08;11.10;99.90
12588;DHT22;6359;51.450;7.346;2023-03-11T08:17:35;10.60;99.90
12588;DHT22;6359;51.450;7.346;2023-03-11T08:20:02;10.90;99.90
12588;DHT22;6359;51.450;7.346;2023-03-11T08:22:33;11.40;99.90
12588;DHT22;6359;51.450;7.346;2023-03-11T08:25:00;10.70;99.90
12588;DHT22;6359;51.450;7.346;2023-03-11T08:27:27;10.70;99.90
12588;DHT22;6359;51.450;7.346;2023-03-11T08:29:57;11.40;99.90
12588;DHT22;6359;51.450;7.346;2023-03-11T08:32:24;11.10;99.90
12588;DHT22;6359;51.450;7.346;2023-03-11T08:34:51;11.20;99.90
12588;DHT22;6359;51.450;7.346;2023-03-11T08:37:17;11.70;99.90
12588;DHT22;6359;51.450;7.346;2023-03-11T08:39:44;12.70;99.90
12588;DHT22;6359;51.450;7.346;2023-03-11T08:42:11;12.40;99.90
12588;DHT22;6359;51.450;7.346;2023-03-11T08:44:38;12.00;99.90
12588;DHT22;6359;51.450;7.346;2023-03-11T08:47:06;11.40;99.90
12588;DHT22;6359;51.450;7.346;2023-03-11T08:49:33;11.10;99.90
12588;DHT22;6359;51.450;7.346;2023-03-11T08:52:01;11.00;99.90
12588;DHT22;6359;51.450;7.346;2023-03-11T08:54:28;11.00;99.90
12588;DHT22;6359;51.450;7.346;2023-03-11T08:56:55;11.60;99.90
12588;DHT22;6359;51.450;7.346;2023-03-11T08:59:23;12.50;99.90
12588;DHT22;6359;51.450;7.346;2023-03-11T09:01:50;13.10;99.90
12588;DHT22;6359;51.450;7.346;2023-03-11T09:04:18;13.50;99.90
12588;DHT22;6359;51.450;7.346;2023-03-11T09:09:13;14.60;99.90
12588;DHT22;6359;51.450;7.346;2023-03-11T09:11:42;14.30;99.90
12588;DHT22;6359;51.450;7.346;2023-03-11T09:14:09;14.80;99.90
12588;DHT22;6359;51.450;7.346;2023-03-11T09:16:36;14.50;99.90
12588;DHT22;6359;51.450;7.346;2023-03-11T09:19:02;15.00;99.90
12588;DHT22;6359;51.450;7.346;2023-03-11T09:21:33;14.10;99.90
12588;DHT22;6359;51.450;7.346;2023-03-11T09:24:00;14.70;99.90
12588;DHT22;6359;51.450;7.346;2023-03-11T09:26:28;15.40;99.90
12588;DHT22;6359;51.450;7.346;2023-03-11T09:28:55;16.10;99.90
12588;DHT22;6359;51.450;7.346;2023-03-11T09:31:23;14.10;99.90
12588;DHT22;6359;51.450;7.346;2023-03-11T09:33:50;12.70;99.90
12588;DHT22;6359;51.450;7.346;2023-03-11T09:36:20;13.40;99.90
12588;DHT22;6359;51.450;7.346;2023-03-11T09:38:49;14.00;99.90
12588;DHT22;6359;51.450;7.346;2023-03-11T09:41:26;13.00;99.90
12588;DHT22;6359;51.450;7.346;2023-03-11T09:53:01;11.70;99.90
12588;DHT22;6359;51.450;7.346;2023-03-11T09:55:39;12.20;99.90
12588;DHT22;6359;51.450;7.346;2023-03-11T09:58:17;10.70;99.90
12588;DHT22;6359;51.450;7.346;2023-03-11T10:00:46;10.20;99.90
12588;DHT22;6359;51.450;7.346;2023-03-11T10:03:24;10.40;99.90
12588;DHT22;6359;51.450;7.346;2023-03-11T10:05:54;8.10;99.90
12588;DHT22;6359;51.450;7.346;2023-03-11T10:08:29;8.00;99.90
12588;DHT22;6359;51.450;7.346;2023-03-11T10:11:05;7.10;99.90
12588;DHT22;6359;51.450;7.346;2023-03-11T10:13:38;7.20;99.90
12588;DHT22;6359;51.450;7.346;2023-03-11T10:16:17;8.90;99.90
12588;DHT22;6359;51.450;7.346;2023-03-11T10:18:53;10.70;99.90
12588;DHT22;6359;51.450;7.346;2023-03-11T10:21:33;12.20;99.90
12588;DHT22;6359;51.450;7.346;2023-03-11T10:24:13;13.00;99.90
12588;DHT22;6359;51.450;7.346;2023-03-11T10:26:47;13.60;99.90
12588;DHT22;6359;51.450;7.346;2023-03-11T10:29:19;14.70;99.90
12588;DHT22;6359;51.450;7.346;2023-03-11T10:31:50;13.40;99.90
12588;DHT22;6359;51.450;7.346;2023-03-11T10:34:22;12.40;99.90
12588;DHT22;6359;51.450;7.346;2023-03-11T10:36:56;11.20;99.90
12588;DHT22;6359;51.450;7.346;2023-03-11T10:39:24;11.40;99.90
12588;DHT22;6359;51.450;7.346;2023-03-11T10:41:55;12.30;99.90
12588;DHT22;6359;51.450;7.346;2023-03-11T10:44:26;11.80;99.90
12588;DHT22;6359;51.450;7.346;2023-03-11T10:46:54;11.00;99.90
12588;DHT22;6359;51.450;7.346;2023-03-11T10:49:21;11.50;99.90
12588;DHT22;6359;51.450;7.346;2023-03-11T10:51:50;11.60;99.90
12588;DHT22;6359;51.450;7.346;2023-03-11T10:54:26;11.40;99.90
12588;DHT22;6359;51.450;7.346;2023-03-11T10:56:56;11.40;99.90
12588;DHT22;6359;51.450;7.346;2023-03-11T10:59:26;10.90;99.90
12588;DHT22;6359;51.450;7.346;2023-03-11T11:01:55;11.20;99.90
12588;DHT22;6359;51.450;7.346;2023-03-11T11:04:30;11.00;99.90
12588;DHT22;6359;51.450;7.346;2023-03-11T11:07:19;10.90;99.90
12588;DHT22;6359;51.450;7.346;2023-03-11T11:09:47;10.40;99.90
12588;DHT22;6359;51.450;7.346;2023-03-11T11:12:25;9.90;99.90
12588;DHT22;6359;51.450;7.346;2023-03-11T11:14:52;9.30;99.90
12588;DHT22;6359;51.450;7.346;2023-03-11T11:17:23;8.30;99.90
12588;DHT22;6359;51.450;7.346;2023-03-11T11:19:51;7.80;99.90
12588;DHT22;6359;51.450;7.346;2023-03-11T11:22:20;7.20;99.90
12588;DHT22;6359;51.450;7.346;2023-03-11T11:24:49;6.80;99.90
12588;DHT22;6359;51.450;7.346;2023-03-11T11:27:19;6.90;99.90
12588;DHT22;6359;51.450;7.346;2023-03-11T11:30:03;7.30;99.90
12588;DHT22;6359;51.450;7.346;2023-03-11T11:32:31;6.90;99.90
12588;DHT22;6359;51.450;7.346;2023-03-11T11:34:59;6.70;99.90
12588;DHT22;6359;51.450;7.346;2023-03-11T11:37:29;6.90;99.90
12588;DHT22;6359;51.450;7.346;2023-03-11T11:40:00;6.80;99.90
12588;DHT22;6359;51.450;7.346;2023-03-11T11:42:35;6.60;99.90
12588;DHT22;6359;51.450;7.346;2023-03-11T11:45:12;6.60;99.90
12588;DHT22;6359;51.450;7.346;2023-03-11T11:47:43;6.80;99.90
12588;DHT22;6359;51.450;7.346;2023-03-11T11:50:15;7.30;99.90
12588;DHT22;6359;51.450;7.346;2023-03-11T11:52:48;7.80;99.90
12588;DHT22;6359;51.450;7.346;2023-03-11T11:55:20;8.10;99.90
12588;DHT22;6359;51.450;7.346;2023-03-11T11:57:48;8.70;99.90
12588;DHT22;6359;51.450;7.346;2023-03-11T12:00:22;9.00;99.90
12588;DHT22;6359;51.450;7.346;2023-03-11T12:03:07;9.20;99.90
12588;DHT22;6359;51.450;7.346;2023-03-11T12:05:44;8.90;99.90
12588;DHT22;6359;51.450;7.346;2023-03-11T12:08:21;8.60;99.90
12588;DHT22;6359;51.450;7.346;2023-03-11T12:10:55;8.20;99.90
12588;DHT22;6359;51.450;7.346;2023-03-11T12:13:52;7.80;99.90
12588;DHT22;6359;51.450;7.346;2023-03-11T12:16:37;7.60;99.90
12588;DHT22;6359;51.450;7.346;2023-03-11T12:19:23;7.10;99.90
12588;DHT22;6359;51.450;7.346;2023-03-11T12:22:15;6.80;99.90
12588;DHT22;6359;51.450;7.346;2023-03-11T12:25:00;6.90;99.90
12588;DHT22;6359;51.450;7.346;2023-03-11T12:27:32;7.00;99.90
12588;DHT22;6359;51.450;7.346;2023-03-11T12:30:02;6.90;99.90
12588;DHT22;6359;51.450;7.346;2023-03-11T12:32:36;7.10;99.90
12588;DHT22;6359;51.450;7.346;2023-03-11T12:35:16;7.60;99.90
12588;DHT22;6359;51.450;7.346;2023-03-11T12:37:45;7.90;99.90
12588;DHT22;6359;51.450;7.346;2023-03-11T12:40:47;7.70;99.90
12588;DHT22;6359;51.450;7.346;2023-03-11T12:43:25;7.30;99.90
12588;DHT22;6359;51.450;7.346;2023-03-11T12:45:55;7.80;99.90
12588;DHT22;6359;51.450;7.346;2023-03-11T12:48:31;7.80;99.90
12588;DHT22;6359;51.450;7.346;2023-03-11T12:50:59;7.30;99.90
12588;DHT22;6359;51.450;7.346;2023-03-11T12:53:43;7.40;99.90
12588;DHT22;6359;51.450;7.346;2023-03-11T12:56:21;7.30;99.90
12588;DHT22;6359;51.450;7.346;2023-03-11T12:59:17;7.60;99.90
12588;DHT22;6359;51.450;7.346;2023-03-11T13:01:57;7.60;99.90
12588;DHT22;6359;51.450;7.346;2023-03-11T13:04:38;7.20;99.90
12588;DHT22;6359;51.450;7.346;2023-03-11T13:07:44;7.00;99.90
12588;DHT22;6359;51.450;7.346;2023-03-11T13:10:16;6.80;99.90
12588;DHT22;6359;51.450;7.346;2023-03-11T13:12:44;6.90;99.90
12588;DHT22;6359;51.450;7.346;2023-03-11T13:15:33;7.10;99.90
12588;DHT22;6359;51.450;7.346;2023-03-11T13:18:02;7.00;99.90
12588;DHT22;6359;51.450;7.346;2023-03-11T13:20:47;6.70;99.90
12588;DHT22;6359;51.450;7.346;2023-03-11T13:23:35;6.60;99.90
12588;DHT22;6359;51.450;7.346;2023-03-11T13:26:30;6.90;99.90
12588;DHT22;6359;51.450;7.346;2023-03-11T13:29:27;7.20;99.90
12588;DHT22;6359;51.450;7.346;2023-03-11T13:32:06;7.40;99.90
12588;DHT22;6359;51.450;7.346;2023-03-11T13:34:42;7.20;99.90
12588;DHT22;6359;51.450;7.346;2023-03-11T13:37:21;7.40;99.90
12588;DHT22;6359;51.450;7.346;2023-03-11T13:40:01;7.70;99.90
12588;DHT22;6359;51.450;7.346;2023-03-11T13:42:42;7.90;99.90
12588;DHT22;6359;51.450;7.346;2023-03-11T13:45:26;7.80;99.90
12588;DHT22;6359;51.450;7.346;2023-03-11T13:47:57;8.10;99.90
12588;DHT22;6359;51.450;7.346;2023-03-11T13:50:28;8.10;99.90
12588;DHT22;6359;51.450;7.346;2023-03-11T13:52:58;8.10;99.90
12588;DHT22;6359;51.450;7.346;2023-03-11T13:55:31;8.40;99.90
12588;DHT22;6359;51.450;7.346;2023-03-11T13:57:59;8.60;99.90
12588;DHT22;6359;51.450;7.346;2023-03-11T14:00:27;8.40;99.90
12588;DHT22;6359;51.450;7.346;2023-03-11T14:02:56;8.40;99.90
12588;DHT22;6359;51.450;7.346;2023-03-11T14:05:25;8.50;99.90
12588;DHT22;6359;51.450;7.346;2023-03-11T14:07:52;8.40;99.90
12588;DHT22;6359;51.450;7.346;2023-03-11T14:10:26;8.20;99.90
12588;DHT22;6359;51.450;7.346;2023-03-11T14:13:15;8.00;99.90
12588;DHT22;6359;51.450;7.346;2023-03-11T14:15:47;7.80;99.90
12588;DHT22;6359;51.450;7.346;2023-03-11T14:18:25;7.80;99.90
12588;DHT22;6359;51.450;7.346;2023-03-11T14:20:53;8.10;99.90
12588;DHT22;6359;51.450;7.346;2023-03-11T14:23:20;8.10;99.90
12588;DHT22;6359;51.450;7.346;2023-03-11T14:25:57;7.90;99.90
12588;DHT22;6359;51.450;7.346;2023-03-11T14:28:25;8.00;99.90
12588;DHT22;6359;51.450;7.346;2023-03-11T14:30:58;8.10;99.90
12588;DHT22;6359;51.450;7.346;2023-03-11T14:33:25;8.30;99.90
12588;DHT22;6359;51.450;7.346;2023-03-11T14:35:53;8.30;99.90
12588;DHT22;6359;51.450;7.346;2023-03-11T14:38:21;8.00;99.90
12588;DHT22;6359;51.450;7.346;2023-03-11T14:40:52;7.80;99.90
12588;DHT22;6359;51.450;7.346;2023-03-11T14:43:20;7.60;99.90
12588;DHT22;6359;51.450;7.346;2023-03-11T14:45:48;7.50;99.90
12588;DHT22;6359;51.450;7.346;2023-03-11T14:48:20;7.60;99.90
12588;DHT22;6359;51.450;7.346;2023-03-11T14:50:49;7.40;99.90
12588;DHT22;6359;51.450;7.346;2023-03-11T14:53:19;7.50;99.90
12588;DHT22;6359;51.450;7.346;2023-03-11T14:55:54;7.70;99.90
12588;DHT22;6359;51.450;7.346;2023-03-11T14:58:27;7.60;99.90
12588;DHT22;6359;51.450;7.346;2023-03-11T15:00:59;7.50;99.90
12588;DHT22;6359;51.450;7.346;2023-03-11T15:03:28;7.50;99.90
12588;DHT22;6359;51.450;7.346;2023-03-11T15:05:59;7.50;99.90
12588;DHT22;6359;51.450;7.346;2023-03-11T15:08:31;7.50;99.90
12588;DHT22;6359;51.450;7.346;2023-03-11T15:11:06;7.30;99.90
12588;DHT22;6359;51.450;7.346;2023-03-11T15:13:34;7.30;99.90
12588;DHT22;6359;51.450;7.346;2023-03-11T15:16:03;7.30;99.90
12588;DHT22;6359;51.450;7.346;2023-03-11T15:18:33;7.00;99.90
12588;DHT22;6359;51.450;7.346;2023-03-11T15:21:05;6.90;99.90
12588;DHT22;6359;51.450;7.346;2023-03-11T15:23:34;7.00;99.90
12588;DHT22;6359;51.450;7.346;2023-03-11T15:26:03;7.00;99.90
12588;DHT22;6359;51.450;7.346;2023-03-11T15:28:33;6.90;99.90
12588;DHT22;6359;51.450;7.346;2023-03-11T15:31:27;6.90;99.90
12588;DHT22;6359;51.450;7.346;2023-03-11T15:34:07;6.70;99.90
12588;DHT22;6359;51.450;7.346;2023-03-11T15:36:37;6.70;99.90
12588;DHT22;6359;51.450;7.346;2023-03-11T15:39:13;6.80;99.90
12588;DHT22;6359;51.450;7.346;2023-03-11T15:41:45;6.70;99.90
12588;DHT22;6359;51.450;7.346;2023-03-11T15:44:24;6.60;99.90
12588;DHT22;6359;51.450;7.346;2023-03-11T15:46:52;6.50;99.90
12588;DHT22;6359;51.450;7.346;2023-03-11T15:49:19;6.50;99.90
12588;DHT22;6359;51.450;7.346;2023-03-11T15:51:46;6.50;99.90
12588;DHT22;6359;51.450;7.346;2023-03-11T15:54:12;6.40;99.90
12588;DHT22;6359;51.450;7.346;2023-03-11T15:56:40;6.30;99.90
12588;DHT22;6359;51.450;7.346;2023-03-11T15:59:12;6.30;99.90
12588;DHT22;6359;51.450;7.346;2023-03-11T16:01:39;6.30;99.90
12588;DHT22;6359;51.450;7.346;2023-03-11T16:04:11;6.20;99.90
12588;DHT22;6359;51.450;7.346;2023-03-11T16:06:39;6.10;99.90
12588;DHT22;6359;51.450;7.346;2023-03-11T16:09:06;6.00;99.90
12588;DHT22;6359;51.450;7.346;2023-03-11T16:11:34;6.00;99.90
12588;DHT22;6359;51.450;7.346;2023-03-11T16:14:01;5.90;99.90
12588;DHT22;6359;51.450;7.346;2023-03-11T16:16:30;5.90;99.90
12588;DHT22;6359;51.450;7.346;2023-03-11T16:18:57;5.90;99.90
12588;DHT22;6359;51.450;7.346;2023-03-11T16:21:29;5.90;99.90
12588;DHT22;6359;51.450;7.346;2023-03-11T16:23:58;6.00;99.90
12588;DHT22;6359;51.450;7.346;2023-03-11T16:26:25;5.90;99.90
12588;DHT22;6359;51.450;7.346;2023-03-11T16:28:51;6.00;99.90
12588;DHT22;6359;51.450;7.346;2023-03-11T16:31:18;6.00;99.90